Terminal Aerodrome Forecast
Issued by NWS Albuquerque, NM

Home | Current Version | Previous Version | Text Only | Print | Product List | Glossary On
Versions: 1 2 3 4 5 6 7 8 9 10 11 12 13 14 15
943
FTUS45 KABQ 021740
TAFABQ
TAF
KABQ 021740Z 0218/0318 08019G27KT P6SM FEW070 SCT140
     FM030200 08020G28KT P6SM SCT050 BKN100
     FM030800 09014G23KT P6SM VCSH SCT030 BKN050
     FM031300 02009KT P6SM SCT020 BKN045=

USA.gov is the U.S. government's official web portal to all federal, state and local government web resources and services.